sensor_id;sensor_type;location;lat;lon;timestamp;temperature;humidity
10417;DHT22;62605;49.432;8.680;2023-09-19T00:00:44;17.60;1.00
10417;DHT22;62605;49.432;8.680;2023-09-19T00:03:12;17.60;99.90
10417;DHT22;62605;49.432;8.680;2023-09-19T00:05:40;17.50;1.00
10417;DHT22;62605;49.432;8.680;2023-09-19T00:08:10;17.50;1.00
10417;DHT22;62605;49.432;8.680;2023-09-19T00:10:39;17.50;1.00
10417;DHT22;62605;49.432;8.680;2023-09-19T00:13:09;17.50;1.00
10417;DHT22;62605;49.432;8.680;2023-09-19T00:15:40;17.40;99.90
10417;DHT22;62605;49.432;8.680;2023-09-19T00:18:08;17.40;99.90
10417;DHT22;62605;49.432;8.680;2023-09-19T00:20:36;17.40;99.90
10417;DHT22;62605;49.432;8.680;2023-09-19T00:23:04;17.50;99.90
10417;DHT22;62605;49.432;8.680;2023-09-19T00:25:35;17.40;99.90
10417;DHT22;62605;49.432;8.680;2023-09-19T00:28:03;17.40;99.90
10417;DHT22;62605;49.432;8.680;2023-09-19T00:30:31;17.40;99.90
10417;DHT22;62605;49.432;8.680;2023-09-19T00:32:58;17.40;99.90
10417;DHT22;62605;49.432;8.680;2023-09-19T00:35:27;17.40;99.90
10417;DHT22;62605;49.432;8.680;2023-09-19T00:37:54;17.30;99.90
10417;DHT22;62605;49.432;8.680;2023-09-19T00:40:22;17.30;99.90
10417;DHT22;62605;49.432;8.680;2023-09-19T00:42:50;17.30;99.90
10417;DHT22;62605;49.432;8.680;2023-09-19T00:45:17;17.30;99.90
10417;DHT22;62605;49.432;8.680;2023-09-19T00:47:49;17.40;99.90
10417;DHT22;62605;49.432;8.680;2023-09-19T00:50:18;17.30;99.90
10417;DHT22;62605;49.432;8.680;2023-09-19T00:52:46;17.40;99.90
10417;DHT22;62605;49.432;8.680;2023-09-19T00:58:38;17.40;99.90
10417;DHT22;62605;49.432;8.680;2023-09-19T01:01:06;17.40;99.90
10417;DHT22;62605;49.432;8.680;2023-09-19T01:03:36;17.40;99.90
10417;DHT22;62605;49.432;8.680;2023-09-19T01:06:03;17.40;99.90
10417;DHT22;62605;49.432;8.680;2023-09-19T01:08:31;17.40;99.90
10417;DHT22;62605;49.432;8.680;2023-09-19T01:11:11;17.50;99.90
10417;DHT22;62605;49.432;8.680;2023-09-19T01:13:51;17.50;99.90
10417;DHT22;62605;49.432;8.680;2023-09-19T01:16:31;17.40;99.90
10417;DHT22;62605;49.432;8.680;2023-09-19T01:19:28;17.40;99.90
10417;DHT22;62605;49.432;8.680;2023-09-19T01:22:09;17.50;99.90
10417;DHT22;62605;49.432;8.680;2023-09-19T01:25:18;17.40;99.90
10417;DHT22;62605;49.432;8.680;2023-09-19T01:28:14;17.50;99.90
10417;DHT22;62605;49.432;8.680;2023-09-19T01:30:46;17.40;99.90
10417;DHT22;62605;49.432;8.680;2023-09-19T01:33:15;17.40;99.90
10417;DHT22;62605;49.432;8.680;2023-09-19T01:35:43;17.40;99.90
10417;DHT22;62605;49.432;8.680;2023-09-19T01:38:11;17.40;99.90
10417;DHT22;62605;49.432;8.680;2023-09-19T01:40:41;17.40;99.90
10417;DHT22;62605;49.432;8.680;2023-09-19T01:43:15;17.40;99.90
10417;DHT22;62605;49.432;8.680;2023-09-19T01:45:52;17.40;99.90
10417;DHT22;62605;49.432;8.680;2023-09-19T01:48:28;17.40;99.90
10417;DHT22;62605;49.432;8.680;2023-09-19T01:51:03;17.40;99.90
10417;DHT22;62605;49.432;8.680;2023-09-19T01:53:35;17.50;99.90
10417;DHT22;62605;49.432;8.680;2023-09-19T01:56:05;17.50;99.90
10417;DHT22;62605;49.432;8.680;2023-09-19T01:58:41;17.50;99.90
10417;DHT22;62605;49.432;8.680;2023-09-19T02:01:13;17.50;99.90
10417;DHT22;62605;49.432;8.680;2023-09-19T02:03:44;17.40;99.90
10417;DHT22;62605;49.432;8.680;2023-09-19T02:06:14;17.40;99.90
10417;DHT22;62605;49.432;8.680;2023-09-19T02:08:43;17.40;99.90
10417;DHT22;62605;49.432;8.680;2023-09-19T02:11:11;17.50;99.90
10417;DHT22;62605;49.432;8.680;2023-09-19T02:13:39;17.50;99.90
10417;DHT22;62605;49.432;8.680;2023-09-19T02:16:07;17.50;99.90
10417;DHT22;62605;49.432;8.680;2023-09-19T02:18:39;17.40;99.90
10417;DHT22;62605;49.432;8.680;2023-09-19T02:21:06;17.50;99.90
10417;DHT22;62605;49.432;8.680;2023-09-19T02:23:35;17.50;99.90
10417;DHT22;62605;49.432;8.680;2023-09-19T02:26:02;17.50;99.90
10417;DHT22;62605;49.432;8.680;2023-09-19T02:28:30;17.40;99.90
10417;DHT22;62605;49.432;8.680;2023-09-19T02:31:01;17.40;99.90
10417;DHT22;62605;49.432;8.680;2023-09-19T02:33:30;17.40;99.90
10417;DHT22;62605;49.432;8.680;2023-09-19T02:36:00;17.40;99.90
10417;DHT22;62605;49.432;8.680;2023-09-19T02:38:29;17.40;99.90
10417;DHT22;62605;49.432;8.680;2023-09-19T02:40:57;17.30;99.90
10417;DHT22;62605;49.432;8.680;2023-09-19T02:43:25;17.40;99.90
10417;DHT22;62605;49.432;8.680;2023-09-19T02:45:52;17.40;99.90
10417;DHT22;62605;49.432;8.680;2023-09-19T02:48:20;17.40;99.90
10417;DHT22;62605;49.432;8.680;2023-09-19T02:50:49;17.40;99.90
10417;DHT22;62605;49.432;8.680;2023-09-19T02:53:18;17.40;99.90
10417;DHT22;62605;49.432;8.680;2023-09-19T02:55:47;17.30;99.90
10417;DHT22;62605;49.432;8.680;2023-09-19T02:58:14;17.40;99.90
10417;DHT22;62605;49.432;8.680;2023-09-19T03:00:41;17.30;99.90
10417;DHT22;62605;49.432;8.680;2023-09-19T03:03:13;17.30;99.90
10417;DHT22;62605;49.432;8.680;2023-09-19T03:05:41;17.30;99.90
10417;DHT22;62605;49.432;8.680;2023-09-19T03:08:13;17.30;99.90
10417;DHT22;62605;49.432;8.680;2023-09-19T03:10:46;17.30;99.90
10417;DHT22;62605;49.432;8.680;2023-09-19T03:13:14;17.30;99.90
10417;DHT22;62605;49.432;8.680;2023-09-19T03:15:41;17.30;99.90
10417;DHT22;62605;49.432;8.680;2023-09-19T03:18:12;17.20;99.90
10417;DHT22;62605;49.432;8.680;2023-09-19T03:20:39;17.20;99.90
10417;DHT22;62605;49.432;8.680;2023-09-19T03:23:07;17.20;99.90
10417;DHT22;62605;49.432;8.680;2023-09-19T03:25:34;17.10;99.90
10417;DHT22;62605;49.432;8.680;2023-09-19T03:28:04;17.10;99.90
10417;DHT22;62605;49.432;8.680;2023-09-19T03:30:32;17.10;99.90
10417;DHT22;62605;49.432;8.680;2023-09-19T03:33:00;17.10;99.90
10417;DHT22;62605;49.432;8.680;2023-09-19T03:35:28;17.10;99.90
10417;DHT22;62605;49.432;8.680;2023-09-19T03:37:55;17.10;99.90
10417;DHT22;62605;49.432;8.680;2023-09-19T03:40:23;17.10;99.90
10417;DHT22;62605;49.432;8.680;2023-09-19T03:42:51;17.10;99.90
10417;DHT22;62605;49.432;8.680;2023-09-19T03:45:19;17.10;99.90
10417;DHT22;62605;49.432;8.680;2023-09-19T03:47:47;17.00;99.90
10417;DHT22;62605;49.432;8.680;2023-09-19T03:50:14;16.90;99.90
10417;DHT22;62605;49.432;8.680;2023-09-19T03:52:43;16.80;99.90
10417;DHT22;62605;49.432;8.680;2023-09-19T03:55:10;16.80;99.90
10417;DHT22;62605;49.432;8.680;2023-09-19T03:57:37;16.80;99.90
10417;DHT22;62605;49.432;8.680;2023-09-19T04:00:05;16.80;99.90
10417;DHT22;62605;49.432;8.680;2023-09-19T04:02:39;16.70;99.90
10417;DHT22;62605;49.432;8.680;2023-09-19T04:05:08;16.70;99.90
10417;DHT22;62605;49.432;8.680;2023-09-19T04:07:38;16.60;99.90
10417;DHT22;62605;49.432;8.680;2023-09-19T04:10:07;16.60;99.90
10417;DHT22;62605;49.432;8.680;2023-09-19T04:12:37;16.60;99.90
10417;DHT22;62605;49.432;8.680;2023-09-19T04:15:05;16.60;99.90
10417;DHT22;62605;49.432;8.680;2023-09-19T04:17:33;16.50;99.90
10417;DHT22;62605;49.432;8.680;2023-09-19T04:20:02;16.60;99.90
10417;DHT22;62605;49.432;8.680;2023-09-19T04:22:32;16.60;99.90
10417;DHT22;62605;49.432;8.680;2023-09-19T04:25:00;16.60;1.00
10417;DHT22;62605;49.432;8.680;2023-09-19T04:27:27;16.60;1.00
10417;DHT22;62605;49.432;8.680;2023-09-19T04:29:54;16.60;1.00
10417;DHT22;62605;49.432;8.680;2023-09-19T04:32:28;16.60;1.00
10417;DHT22;62605;49.432;8.680;2023-09-19T04:34:55;16.50;1.00
10417;DHT22;62605;49.432;8.680;2023-09-19T04:37:27;16.60;1.00
10417;DHT22;62605;49.432;8.680;2023-09-19T04:39:54;16.50;1.00
10417;DHT22;62605;49.432;8.680;2023-09-19T04:42:22;16.50;1.00
10417;DHT22;62605;49.432;8.680;2023-09-19T04:44:50;16.50;1.00
10417;DHT22;62605;49.432;8.680;2023-09-19T04:47:19;16.50;1.00
10417;DHT22;62605;49.432;8.680;2023-09-19T04:49:48;16.30;1.00
10417;DHT22;62605;49.432;8.680;2023-09-19T04:52:16;16.30;1.00
10417;DHT22;62605;49.432;8.680;2023-09-19T04:54:46;16.30;1.00
10417;DHT22;62605;49.432;8.680;2023-09-19T04:57:14;16.30;1.00
10417;DHT22;62605;49.432;8.680;2023-09-19T04:59:42;16.20;1.00
10417;DHT22;62605;49.432;8.680;2023-09-19T05:02:09;16.10;1.00
10417;DHT22;62605;49.432;8.680;2023-09-19T05:04:37;16.20;1.00
10417;DHT22;62605;49.432;8.680;2023-09-19T05:07:04;16.20;1.00
10417;DHT22;62605;49.432;8.680;2023-09-19T05:09:34;16.10;1.00
10417;DHT22;62605;49.432;8.680;2023-09-19T05:12:05;16.00;1.00
10417;DHT22;62605;49.432;8.680;2023-09-19T05:14:32;16.00;1.00
10417;DHT22;62605;49.432;8.680;2023-09-19T05:16:59;15.90;1.00
10417;DHT22;62605;49.432;8.680;2023-09-19T05:19:29;15.90;1.00
10417;DHT22;62605;49.432;8.680;2023-09-19T05:21:57;15.90;1.00
10417;DHT22;62605;49.432;8.680;2023-09-19T05:24:25;15.90;1.00
10417;DHT22;62605;49.432;8.680;2023-09-19T05:26:53;16.00;1.00
10417;DHT22;62605;49.432;8.680;2023-09-19T05:29:23;16.10;1.00
10417;DHT22;62605;49.432;8.680;2023-09-19T05:31:50;16.10;1.00
10417;DHT22;62605;49.432;8.680;2023-09-19T05:34:17;16.20;1.00
10417;DHT22;62605;49.432;8.680;2023-09-19T05:36:46;16.30;1.00
10417;DHT22;62605;49.432;8.680;2023-09-19T05:39:16;16.30;1.00
10417;DHT22;62605;49.432;8.680;2023-09-19T05:41:43;16.30;1.00
10417;DHT22;62605;49.432;8.680;2023-09-19T05:44:12;16.40;1.00
10417;DHT22;62605;49.432;8.680;2023-09-19T05:46:41;16.50;1.00
10417;DHT22;62605;49.432;8.680;2023-09-19T05:49:11;16.60;1.00
10417;DHT22;62605;49.432;8.680;2023-09-19T05:51:39;16.60;1.00
10417;DHT22;62605;49.432;8.680;2023-09-19T05:54:06;16.60;1.00
10417;DHT22;62605;49.432;8.680;2023-09-19T05:56:33;16.60;1.00
10417;DHT22;62605;49.432;8.680;2023-09-19T05:59:00;16.60;1.00
10417;DHT22;62605;49.432;8.680;2023-09-19T06:01:28;16.70;1.00
10417;DHT22;62605;49.432;8.680;2023-09-19T06:03:59;16.70;1.00
10417;DHT22;62605;49.432;8.680;2023-09-19T06:06:27;16.70;1.00
10417;DHT22;62605;49.432;8.680;2023-09-19T06:08:57;16.70;1.00
10417;DHT22;62605;49.432;8.680;2023-09-19T06:11:26;16.80;1.00
10417;DHT22;62605;49.432;8.680;2023-09-19T06:13:55;16.80;1.00
10417;DHT22;62605;49.432;8.680;2023-09-19T06:16:21;16.90;1.00
10417;DHT22;62605;49.432;8.680;2023-09-19T06:18:49;16.90;1.00
10417;DHT22;62605;49.432;8.680;2023-09-19T06:21:19;16.90;1.00
10417;DHT22;62605;49.432;8.680;2023-09-19T06:23:46;16.90;1.00
10417;DHT22;62605;49.432;8.680;2023-09-19T06:26:13;16.90;1.00
10417;DHT22;62605;49.432;8.680;2023-09-19T06:28:41;17.00;1.00
10417;DHT22;62605;49.432;8.680;2023-09-19T06:31:08;17.10;1.00
10417;DHT22;62605;49.432;8.680;2023-09-19T06:33:35;17.10;1.00
10417;DHT22;62605;49.432;8.680;2023-09-19T06:36:04;17.10;1.00
10417;DHT22;62605;49.432;8.680;2023-09-19T06:38:33;17.20;1.00
10417;DHT22;62605;49.432;8.680;2023-09-19T06:41:02;17.30;1.00
10417;DHT22;62605;49.432;8.680;2023-09-19T06:43:33;17.30;1.00
10417;DHT22;62605;49.432;8.680;2023-09-19T06:46:00;17.40;1.00
10417;DHT22;62605;49.432;8.680;2023-09-19T06:48:28;17.20;1.00
10417;DHT22;62605;49.432;8.680;2023-09-19T06:50:56;17.20;1.00
10417;DHT22;62605;49.432;8.680;2023-09-19T06:53:28;17.20;1.00
10417;DHT22;62605;49.432;8.680;2023-09-19T06:56:04;17.30;1.00
10417;DHT22;62605;49.432;8.680;2023-09-19T06:58:32;17.20;1.00
10417;DHT22;62605;49.432;8.680;2023-09-19T07:01:00;17.20;1.00
10417;DHT22;62605;49.432;8.680;2023-09-19T07:03:52;17.30;1.00
10417;DHT22;62605;49.432;8.680;2023-09-19T07:06:20;17.40;1.00
10417;DHT22;62605;49.432;8.680;2023-09-19T07:08:47;17.40;1.00
10417;DHT22;62605;49.432;8.680;2023-09-19T07:11:17;17.40;1.00
10417;DHT22;62605;49.432;8.680;2023-09-19T07:13:45;17.40;1.00
10417;DHT22;62605;49.432;8.680;2023-09-19T07:16:12;17.50;1.00
10417;DHT22;62605;49.432;8.680;2023-09-19T07:18:52;17.60;1.00
10417;DHT22;62605;49.432;8.680;2023-09-19T07:21:20;17.60;1.00
10417;DHT22;62605;49.432;8.680;2023-09-19T07:23:48;17.60;1.00
10417;DHT22;62605;49.432;8.680;2023-09-19T07:26:16;17.70;1.00
10417;DHT22;62605;49.432;8.680;2023-09-19T07:28:43;17.80;1.00
10417;DHT22;62605;49.432;8.680;2023-09-19T07:31:11;17.90;1.00
10417;DHT22;62605;49.432;8.680;2023-09-19T07:33:40;18.00;1.00
10417;DHT22;62605;49.432;8.680;2023-09-19T07:36:10;18.20;1.00
10417;DHT22;62605;49.432;8.680;2023-09-19T07:38:39;18.20;1.00
10417;DHT22;62605;49.432;8.680;2023-09-19T07:41:06;18.20;1.00
10417;DHT22;62605;49.432;8.680;2023-09-19T07:43:36;18.20;1.00
10417;DHT22;62605;49.432;8.680;2023-09-19T07:46:05;18.10;1.00
10417;DHT22;62605;49.432;8.680;2023-09-19T07:48:33;18.30;1.00
10417;DHT22;62605;49.432;8.680;2023-09-19T07:51:04;18.30;1.00
10417;DHT22;62605;49.432;8.680;2023-09-19T07:53:32;18.40;1.00
10417;DHT22;62605;49.432;8.680;2023-09-19T07:56:05;18.40;1.00
10417;DHT22;62605;49.432;8.680;2023-09-19T07:58:33;18.50;1.00
10417;DHT22;62605;49.432;8.680;2023-09-19T08:01:06;18.60;1.00
10417;DHT22;62605;49.432;8.680;2023-09-19T08:03:34;18.50;1.00
10417;DHT22;62605;49.432;8.680;2023-09-19T08:06:06;18.70;1.00
10417;DHT22;62605;49.432;8.680;2023-09-19T08:08:33;18.60;1.00
10417;DHT22;62605;49.432;8.680;2023-09-19T08:11:03;18.60;1.00
10417;DHT22;62605;49.432;8.680;2023-09-19T08:13:36;18.60;1.00
10417;DHT22;62605;49.432;8.680;2023-09-19T08:16:08;18.30;1.00
10417;DHT22;62605;49.432;8.680;2023-09-19T08:18:35;18.40;1.00
10417;DHT22;62605;49.432;8.680;2023-09-19T08:21:03;18.70;1.00
10417;DHT22;62605;49.432;8.680;2023-09-19T08:23:30;18.60;1.00
10417;DHT22;62605;49.432;8.680;2023-09-19T08:25:57;18.90;1.00
10417;DHT22;62605;49.432;8.680;2023-09-19T08:28:28;18.80;1.00
10417;DHT22;62605;49.432;8.680;2023-09-19T08:30:55;19.00;1.00
10417;DHT22;62605;49.432;8.680;2023-09-19T08:33:25;18.90;1.00
10417;DHT22;62605;49.432;8.680;2023-09-19T08:35:52;18.90;1.00
10417;DHT22;62605;49.432;8.680;2023-09-19T08:38:19;18.90;1.00
10417;DHT22;62605;49.432;8.680;2023-09-19T08:40:46;19.00;1.00
10417;DHT22;62605;49.432;8.680;2023-09-19T08:43:14;19.10;1.00
10417;DHT22;62605;49.432;8.680;2023-09-19T08:45:41;18.90;1.00
10417;DHT22;62605;49.432;8.680;2023-09-19T08:48:16;19.00;1.00
10417;DHT22;62605;49.432;8.680;2023-09-19T08:50:51;19.00;1.00
10417;DHT22;62605;49.432;8.680;2023-09-19T08:53:23;18.80;1.00
10417;DHT22;62605;49.432;8.680;2023-09-19T08:55:53;18.80;1.00
10417;DHT22;62605;49.432;8.680;2023-09-19T08:58:27;19.00;1.00
10417;DHT22;62605;49.432;8.680;2023-09-19T09:00:58;19.00;1.00
10417;DHT22;62605;49.432;8.680;2023-09-19T09:03:27;18.90;1.00
10417;DHT22;62605;49.432;8.680;2023-09-19T09:05:59;18.90;1.00
10417;DHT22;62605;49.432;8.680;2023-09-19T09:08:27;18.90;1.00
10417;DHT22;62605;49.432;8.680;2023-09-19T09:10:55;19.10;1.00
10417;DHT22;62605;49.432;8.680;2023-09-19T09:13:24;19.20;1.00
10417;DHT22;62605;49.432;8.680;2023-09-19T09:15:54;19.10;1.00
10417;DHT22;62605;49.432;8.680;2023-09-19T09:18:24;19.20;1.00
10417;DHT22;62605;49.432;8.680;2023-09-19T09:20:51;19.20;1.00
10417;DHT22;62605;49.432;8.680;2023-09-19T09:23:20;19.00;1.00
10417;DHT22;62605;49.432;8.680;2023-09-19T09:25:55;19.40;1.00
10417;DHT22;62605;49.432;8.680;2023-09-19T09:28:32;19.50;1.00
10417;DHT22;62605;49.432;8.680;2023-09-19T09:31:05;19.70;1.00
10417;DHT22;62605;49.432;8.680;2023-09-19T09:33:35;19.80;1.00
10417;DHT22;62605;49.432;8.680;2023-09-19T09:36:03;19.80;1.00
10417;DHT22;62605;49.432;8.680;2023-09-19T09:38:45;20.10;1.00
10417;DHT22;62605;49.432;8.680;2023-09-19T09:41:15;20.00;1.00
10417;DHT22;62605;49.432;8.680;2023-09-19T09:43:53;20.10;1.00
10417;DHT22;62605;49.432;8.680;2023-09-19T09:46:21;20.20;1.00
10417;DHT22;62605;49.432;8.680;2023-09-19T09:49:06;20.40;1.00
10417;DHT22;62605;49.432;8.680;2023-09-19T09:51:58;20.60;1.00
10417;DHT22;62605;49.432;8.680;2023-09-19T09:54:29;20.30;1.00
10417;DHT22;62605;49.432;8.680;2023-09-19T09:57:03;20.10;1.00
10417;DHT22;62605;49.432;8.680;2023-09-19T09:59:50;19.80;1.00
10417;DHT22;62605;49.432;8.680;2023-09-19T10:02:20;19.90;1.00
10417;DHT22;62605;49.432;8.680;2023-09-19T10:04:52;20.10;1.00
10417;DHT22;62605;49.432;8.680;2023-09-19T10:07:26;20.20;1.00
10417;DHT22;62605;49.432;8.680;2023-09-19T10:10:02;20.40;1.00
10417;DHT22;62605;49.432;8.680;2023-09-19T10:12:43;20.50;1.00
10417;DHT22;62605;49.432;8.680;2023-09-19T10:15:15;20.30;1.00
10417;DHT22;62605;49.432;8.680;2023-09-19T10:17:43;20.30;1.00
10417;DHT22;62605;49.432;8.680;2023-09-19T10:20:16;20.20;1.00
10417;DHT22;62605;49.432;8.680;2023-09-19T10:22:50;20.20;1.00
10417;DHT22;62605;49.432;8.680;2023-09-19T10:25:26;20.00;1.00
10417;DHT22;62605;49.432;8.680;2023-09-19T10:27:57;20.10;1.00
10417;DHT22;62605;49.432;8.680;2023-09-19T10:30:26;20.00;1.00
10417;DHT22;62605;49.432;8.680;2023-09-19T10:33:00;20.30;1.00
10417;DHT22;62605;49.432;8.680;2023-09-19T10:35:28;20.20;1.00
10417;DHT22;62605;49.432;8.680;2023-09-19T10:37:59;20.00;1.00
10417;DHT22;62605;49.432;8.680;2023-09-19T10:40:28;19.90;1.00
10417;DHT22;62605;49.432;8.680;2023-09-19T10:43:01;19.90;1.00
10417;DHT22;62605;49.432;8.680;2023-09-19T10:45:31;20.00;1.00
10417;DHT22;62605;49.432;8.680;2023-09-19T10:47:59;20.00;1.00
10417;DHT22;62605;49.432;8.680;2023-09-19T10:50:28;20.20;1.00
10417;DHT22;62605;49.432;8.680;2023-09-19T10:53:00;20.30;1.00
10417;DHT22;62605;49.432;8.680;2023-09-19T10:55:32;20.40;1.00
10417;DHT22;62605;49.432;8.680;2023-09-19T10:58:01;20.60;1.00
10417;DHT22;62605;49.432;8.680;2023-09-19T11:00:50;20.60;1.00
10417;DHT22;62605;49.432;8.680;2023-09-19T11:03:19;20.70;1.00
10417;DHT22;62605;49.432;8.680;2023-09-19T11:06:02;20.50;1.00
10417;DHT22;62605;49.432;8.680;2023-09-19T11:09:00;20.60;1.00
10417;DHT22;62605;49.432;8.680;2023-09-19T11:11:49;20.70;1.00
10417;DHT22;62605;49.432;8.680;2023-09-19T11:14:37;20.90;1.00
10417;DHT22;62605;49.432;8.680;2023-09-19T11:20:21;20.90;1.00
10417;DHT22;62605;49.432;8.680;2023-09-19T11:23:18;21.00;1.00
10417;DHT22;62605;49.432;8.680;2023-09-19T11:25:49;21.00;1.00
10417;DHT22;62605;49.432;8.680;2023-09-19T11:28:32;21.10;1.00
10417;DHT22;62605;49.432;8.680;2023-09-19T11:31:42;21.20;1.00
10417;DHT22;62605;49.432;8.680;2023-09-19T11:34:48;20.90;1.00
10417;DHT22;62605;49.432;8.680;2023-09-19T11:40:37;21.10;1.00
10417;DHT22;62605;49.432;8.680;2023-09-19T11:43:34;20.80;1.00
10417;DHT22;62605;49.432;8.680;2023-09-19T11:46:05;21.00;1.00
10417;DHT22;62605;49.432;8.680;2023-09-19T11:48:32;21.00;1.00
10417;DHT22;62605;49.432;8.680;2023-09-19T11:51:13;21.20;1.00
10417;DHT22;62605;49.432;8.680;2023-09-19T11:53:46;21.30;1.00
10417;DHT22;62605;49.432;8.680;2023-09-19T11:56:16;21.30;1.00
10417;DHT22;62605;49.432;8.680;2023-09-19T11:58:45;21.30;1.00
10417;DHT22;62605;49.432;8.680;2023-09-19T12:01:15;21.40;1.00
10417;DHT22;62605;49.432;8.680;2023-09-19T12:03:53;21.50;1.00
10417;DHT22;62605;49.432;8.680;2023-09-19T12:06:22;21.70;1.00
10417;DHT22;62605;49.432;8.680;2023-09-19T12:08:49;21.50;1.00
10417;DHT22;62605;49.432;8.680;2023-09-19T12:11:21;21.50;1.00
10417;DHT22;62605;49.432;8.680;2023-09-19T12:13:51;21.50;1.00
10417;DHT22;62605;49.432;8.680;2023-09-19T12:16:19;21.80;1.00
10417;DHT22;62605;49.432;8.680;2023-09-19T12:18:49;21.90;1.00
10417;DHT22;62605;49.432;8.680;2023-09-19T12:21:27;21.80;1.00
10417;DHT22;62605;49.432;8.680;2023-09-19T12:24:09;22.00;1.00
10417;DHT22;62605;49.432;8.680;2023-09-19T12:26:43;21.90;1.00
10417;DHT22;62605;49.432;8.680;2023-09-19T12:29:16;21.90;1.00
10417;DHT22;62605;49.432;8.680;2023-09-19T12:31:54;22.10;1.00
10417;DHT22;62605;49.432;8.680;2023-09-19T12:34:25;21.90;1.00
10417;DHT22;62605;49.432;8.680;2023-09-19T12:37:07;21.80;1.00
10417;DHT22;62605;49.432;8.680;2023-09-19T12:39:38;21.90;1.00
10417;DHT22;62605;49.432;8.680;2023-09-19T12:42:08;22.10;1.00
10417;DHT22;62605;49.432;8.680;2023-09-19T12:44:38;22.00;1.00
10417;DHT22;62605;49.432;8.680;2023-09-19T12:47:12;22.20;1.00
10417;DHT22;62605;49.432;8.680;2023-09-19T12:50:06;22.10;1.00
10417;DHT22;62605;49.432;8.680;2023-09-19T12:52:39;22.20;1.00
10417;DHT22;62605;49.432;8.680;2023-09-19T12:55:07;22.20;1.00
10417;DHT22;62605;49.432;8.680;2023-09-19T12:57:35;22.10;1.00
10417;DHT22;62605;49.432;8.680;2023-09-19T13:00:05;22.30;1.00
10417;DHT22;62605;49.432;8.680;2023-09-19T13:02:33;22.10;1.00
10417;DHT22;62605;49.432;8.680;2023-09-19T13:05:00;21.90;1.00
10417;DHT22;62605;49.432;8.680;2023-09-19T13:07:43;21.90;1.00
10417;DHT22;62605;49.432;8.680;2023-09-19T13:10:15;22.00;1.00
10417;DHT22;62605;49.432;8.680;2023-09-19T13:12:43;22.10;1.00
10417;DHT22;62605;49.432;8.680;2023-09-19T13:15:15;22.50;1.00
10417;DHT22;62605;49.432;8.680;2023-09-19T13:17:46;22.70;1.00
10417;DHT22;62605;49.432;8.680;2023-09-19T13:20:22;22.80;1.00
10417;DHT22;62605;49.432;8.680;2023-09-19T13:22:53;23.10;1.00
10417;DHT22;62605;49.432;8.680;2023-09-19T13:25:24;23.00;1.00
10417;DHT22;62605;49.432;8.680;2023-09-19T13:27:53;23.20;1.00
10417;DHT22;62605;49.432;8.680;2023-09-19T13:30:23;23.00;1.00
10417;DHT22;62605;49.432;8.680;2023-09-19T13:32:52;22.80;1.00
10417;DHT22;62605;49.432;8.680;2023-09-19T13:35:20;23.00;1.00
10417;DHT22;62605;49.432;8.680;2023-09-19T13:37:48;23.10;1.00
10417;DHT22;62605;49.432;8.680;2023-09-19T13:40:17;23.10;1.00
10417;DHT22;62605;49.432;8.680;2023-09-19T13:42:44;23.00;1.00
10417;DHT22;62605;49.432;8.680;2023-09-19T13:45:12;23.20;1.00
10417;DHT22;62605;49.432;8.680;2023-09-19T13:47:44;23.00;1.00
10417;DHT22;62605;49.432;8.680;2023-09-19T13:50:11;22.50;1.00
10417;DHT22;62605;49.432;8.680;2023-09-19T13:52:40;22.30;1.00
10417;DHT22;62605;49.432;8.680;2023-09-19T13:55:08;22.60;1.00
10417;DHT22;62605;49.432;8.680;2023-09-19T13:57:35;23.00;1.00
10417;DHT22;62605;49.432;8.680;2023-09-19T14:00:03;23.20;1.00
10417;DHT22;62605;49.432;8.680;2023-09-19T14:02:30;23.40;1.00
10417;DHT22;62605;49.432;8.680;2023-09-19T14:04:59;23.20;1.00
10417;DHT22;62605;49.432;8.680;2023-09-19T14:07:27;23.30;1.00
10417;DHT22;62605;49.432;8.680;2023-09-19T14:09:54;23.30;1.00
10417;DHT22;62605;49.432;8.680;2023-09-19T14:12:21;23.40;1.00
10417;DHT22;62605;49.432;8.680;2023-09-19T14:14:48;23.40;1.00
10417;DHT22;62605;49.432;8.680;2023-09-19T14:17:16;23.50;1.00
10417;DHT22;62605;49.432;8.680;2023-09-19T14:19:44;23.50;99.90
10417;DHT22;62605;49.432;8.680;2023-09-19T14:22:13;23.60;99.90
10417;DHT22;62605;49.432;8.680;2023-09-19T14:24:40;23.40;99.90
10417;DHT22;62605;49.432;8.680;2023-09-19T14:27:08;23.40;99.90
10417;DHT22;62605;49.432;8.680;2023-09-19T14:29:36;23.20;99.90
10417;DHT22;62605;49.432;8.680;2023-09-19T14:32:04;23.60;99.90
10417;DHT22;62605;49.432;8.680;2023-09-19T14:34:31;23.70;99.90
10417;DHT22;62605;49.432;8.680;2023-09-19T14:36:59;23.70;99.90
10417;DHT22;62605;49.432;8.680;2023-09-19T14:39:27;23.40;99.90
10417;DHT22;62605;49.432;8.680;2023-09-19T14:41:54;23.40;99.90
10417;DHT22;62605;49.432;8.680;2023-09-19T14:44:22;23.10;99.90
10417;DHT22;62605;49.432;8.680;2023-09-19T14:46:49;23.00;99.90
10417;DHT22;62605;49.432;8.680;2023-09-19T14:49:16;22.70;99.90
10417;DHT22;62605;49.432;8.680;2023-09-19T14:51:44;22.90;99.90
10417;DHT22;62605;49.432;8.680;2023-09-19T14:54:13;23.00;99.90
10417;DHT22;62605;49.432;8.680;2023-09-19T14:56:43;22.70;99.90
10417;DHT22;62605;49.432;8.680;2023-09-19T14:59:11;22.90;99.90
10417;DHT22;62605;49.432;8.680;2023-09-19T15:01:38;22.80;99.90
10417;DHT22;62605;49.432;8.680;2023-09-19T15:04:06;22.60;99.90
10417;DHT22;62605;49.432;8.680;2023-09-19T15:06:34;22.60;99.90
10417;DHT22;62605;49.432;8.680;2023-09-19T15:09:01;22.60;99.90
10417;DHT22;62605;49.432;8.680;2023-09-19T15:11:30;22.30;99.90
10417;DHT22;62605;49.432;8.680;2023-09-19T15:13:59;22.30;99.90
10417;DHT22;62605;49.432;8.680;2023-09-19T15:16:29;22.30;99.90
10417;DHT22;62605;49.432;8.680;2023-09-19T15:18:57;22.30;99.90
10417;DHT22;62605;49.432;8.680;2023-09-19T15:21:24;22.30;99.90
10417;DHT22;62605;49.432;8.680;2023-09-19T15:23:51;22.30;99.90
10417;DHT22;62605;49.432;8.680;2023-09-19T15:26:18;22.40;99.90
10417;DHT22;62605;49.432;8.680;2023-09-19T15:28:49;22.30;99.90
10417;DHT22;62605;49.432;8.680;2023-09-19T15:31:18;22.10;99.90
10417;DHT22;62605;49.432;8.680;2023-09-19T15:33:46;22.20;99.90
10417;DHT22;62605;49.432;8.680;2023-09-19T15:36:15;22.30;99.90
10417;DHT22;62605;49.432;8.680;2023-09-19T15:39:04;22.50;99.90
10417;DHT22;62605;49.432;8.680;2023-09-19T15:41:34;22.70;99.90
10417;DHT22;62605;49.432;8.680;2023-09-19T15:44:03;22.80;99.90
10417;DHT22;62605;49.432;8.680;2023-09-19T15:46:33;22.70;99.90
10417;DHT22;62605;49.432;8.680;2023-09-19T15:49:01;22.90;99.90
10417;DHT22;62605;49.432;8.680;2023-09-19T15:51:28;22.80;99.90
10417;DHT22;62605;49.432;8.680;2023-09-19T15:53:56;22.70;99.90
10417;DHT22;62605;49.432;8.680;2023-09-19T15:56:25;22.50;99.90
10417;DHT22;62605;49.432;8.680;2023-09-19T15:58:54;22.40;99.90
10417;DHT22;62605;49.432;8.680;2023-09-19T16:01:22;22.70;99.90
10417;DHT22;62605;49.432;8.680;2023-09-19T16:03:52;22.90;99.90
10417;DHT22;62605;49.432;8.680;2023-09-19T16:06:23;22.90;99.90
10417;DHT22;62605;49.432;8.680;2023-09-19T16:08:51;23.10;99.90
10417;DHT22;62605;49.432;8.680;2023-09-19T16:11:20;23.00;99.90